createdAt,value
2023-01-11T00:00:00.034Z,60.79
2023-01-11T00:02:26.439Z,61.16
2023-01-11T00:04:52.848Z,60.66
2023-01-11T00:07:19.195Z,60.70
2023-01-11T00:09:47.669Z,60.39
2023-01-11T00:12:14.921Z,60.55
2023-01-11T00:14:41.251Z,60.49
2023-01-11T00:17:07.620Z,61.07
2023-01-11T00:19:33.984Z,60.88
2023-01-11T00:22:00.356Z,60.77
2023-01-11T00:24:26.684Z,60.80
2023-01-11T00:26:53.005Z,61.37
2023-01-11T00:29:19.314Z,61.24
2023-01-11T00:31:45.620Z,61.06
2023-01-11T00:34:11.968Z,60.95
2023-01-11T00:36:38.326Z,60.54
2023-01-11T00:39:04.640Z,60.56
2023-01-11T00:41:49.657Z,60.49
2023-01-11T00:44:34.535Z,60.29
2023-01-11T00:47:19.424Z,59.96
2023-01-11T00:49:45.799Z,61.19
2023-01-11T00:52:12.189Z,61.67
2023-01-11T00:54:39.789Z,61.26
2023-01-11T00:57:07.393Z,61.25
2023-01-11T00:59:36.157Z,61.10
2023-01-11T01:02:03.117Z,61.15
2023-01-11T01:04:29.507Z,60.74
2023-01-11T01:06:56.070Z,59.43
2023-01-11T01:09:22.447Z,60.27
2023-01-11T01:11:49.003Z,60.52
2023-01-11T01:14:30.615Z,60.88
2023-01-11T01:17:08.444Z,61.27
2023-01-11T01:19:38.591Z,61.34
2023-01-11T01:22:05.393Z,61.49
2023-01-11T01:24:32.414Z,61.59
2023-01-11T01:26:58.852Z,61.25
2023-01-11T01:29:25.684Z,60.75
2023-01-11T01:31:52.009Z,61.13
2023-01-11T01:34:18.345Z,60.63
2023-01-11T01:36:44.914Z,60.46
2023-01-11T01:39:12.781Z,60.49
2023-01-11T01:41:39.220Z,60.97
2023-01-11T01:44:44.407Z,60.04
2023-01-11T01:47:11.656Z,60.12
2023-01-11T01:49:38.575Z,61.09
2023-01-11T01:52:05.125Z,62.25
2023-01-11T01:54:39.281Z,61.70
2023-01-11T01:57:12.303Z,61.71
2023-01-11T01:59:38.812Z,61.64
2023-01-11T02:02:05.155Z,60.91
2023-01-11T02:04:44.076Z,61.21
2023-01-11T02:07:13.583Z,61.12
2023-01-11T02:10:09.322Z,61.13
2023-01-11T02:12:57.591Z,61.59
2023-01-11T02:15:24.709Z,61.99
2023-01-11T02:17:51.451Z,61.81
2023-01-11T02:20:42.136Z,61.26
2023-01-11T02:24:02.750Z,61.05
2023-01-11T02:26:55.422Z,61.01
2023-01-11T02:29:53.120Z,60.25
2023-01-11T02:32:33.709Z,59.41
2023-01-11T02:35:26.411Z,58.64
2023-01-11T02:38:06.362Z,58.99
2023-01-11T02:40:44.874Z,58.81
2023-01-11T02:43:37.580Z,58.99
2023-01-11T02:46:16.521Z,58.73
2023-01-11T02:49:04.215Z,59.31
2023-01-11T02:51:50.354Z,59.73
2023-01-11T02:54:19.497Z,60.73
2023-01-11T02:56:48.530Z,61.54
2023-01-11T02:59:22.552Z,61.76
2023-01-11T03:01:51.628Z,62.07
2023-01-11T03:04:23.724Z,61.79
2023-01-11T03:06:58.953Z,62.33
2023-01-11T03:09:38.055Z,62.00
2023-01-11T03:12:51.738Z,62.17
2023-01-11T03:15:27.971Z,61.89
2023-01-11T03:18:19.300Z,61.94
2023-01-11T03:20:51.799Z,61.88
2023-01-11T03:23:34.618Z,62.15
2023-01-11T03:26:19.490Z,62.22
2023-01-11T03:28:57.430Z,61.72
2023-01-11T03:31:38.399Z,62.12
2023-01-11T03:34:31.531Z,62.33
2023-01-11T03:37:12.395Z,62.12
2023-01-11T03:39:47.206Z,61.74
2023-01-11T03:42:21.648Z,62.09
2023-01-11T03:44:53.195Z,61.71
2023-01-11T03:47:23.843Z,62.13
2023-01-11T03:49:56.020Z,61.48
2023-01-11T03:52:27.702Z,60.37
2023-01-11T03:54:56.195Z,60.23
2023-01-11T03:57:28.453Z,59.98
2023-01-11T03:59:54.851Z,60.33
2023-01-11T04:02:28.017Z,60.10
2023-01-11T04:04:54.491Z,61.10
2023-01-11T04:07:20.910Z,61.60
2023-01-11T04:09:47.267Z,62.42
2023-01-11T04:12:13.583Z,62.66
2023-01-11T04:14:39.902Z,63.18
2023-01-11T04:17:06.252Z,63.86
2023-01-11T04:19:32.570Z,63.69
2023-01-11T04:21:59.077Z,63.56
2023-01-11T04:24:25.592Z,63.91
2023-01-11T04:26:51.940Z,63.54
2023-01-11T04:29:18.314Z,63.62
2023-01-11T04:31:44.746Z,63.42
2023-01-11T04:34:12.104Z,63.17
2023-01-11T04:36:38.420Z,62.19
2023-01-11T04:39:06.364Z,60.99
2023-01-11T04:41:51.207Z,61.21
2023-01-11T04:44:17.549Z,61.38
2023-01-11T04:46:43.900Z,61.39
2023-01-11T04:49:10.227Z,62.28
2023-01-11T04:51:36.599Z,62.61
2023-01-11T04:54:02.967Z,62.76
2023-01-11T04:56:29.489Z,62.58
2023-01-11T04:58:56.071Z,62.95
2023-01-11T05:01:22.556Z,63.25
2023-01-11T05:03:49.017Z,63.12
2023-01-11T05:06:15.823Z,63.15
2023-01-11T05:08:48.769Z,63.73
2023-01-11T05:11:16.471Z,63.53
2023-01-11T05:13:43.094Z,63.68
2023-01-11T05:16:18.337Z,63.62
2023-01-11T05:18:55.733Z,63.78
2023-01-11T05:21:25.554Z,63.51
2023-01-11T05:23:53.429Z,63.72
2023-01-11T05:26:26.690Z,63.30
2023-01-11T05:28:55.158Z,63.36
2023-01-11T05:31:22.339Z,63.35
2023-01-11T05:33:49.034Z,63.38
2023-01-11T05:36:18.327Z,63.56
2023-01-11T05:38:49.179Z,63.72
2023-01-11T05:41:16.566Z,63.91
2023-01-11T05:44:06.677Z,63.39
2023-01-11T05:46:34.654Z,64.00
2023-01-11T05:49:01.611Z,63.89
2023-01-11T05:51:35.337Z,63.77
2023-01-11T05:54:03.679Z,63.91
2023-01-11T05:56:30.826Z,64.18
2023-01-11T05:58:57.219Z,64.10
2023-01-11T06:01:24.943Z,64.34
2023-01-11T06:03:51.817Z,64.13
2023-01-11T06:06:19.858Z,63.98
2023-01-11T06:08:46.270Z,64.28
2023-01-11T06:11:12.729Z,64.21
2023-01-11T06:13:39.051Z,64.23
2023-01-11T06:16:17.501Z,64.35
2023-01-11T06:18:46.623Z,64.43
2023-01-11T06:21:14.295Z,64.31
2023-01-11T06:23:43.711Z,64.16
2023-01-11T06:26:13.266Z,64.22
2023-01-11T06:28:40.329Z,64.22
2023-01-11T06:31:07.304Z,65.28
2023-01-11T06:33:33.724Z,64.37
2023-01-11T06:36:05.151Z,62.87
2023-01-11T06:38:31.487Z,63.08
2023-01-11T06:41:00.525Z,62.77
2023-01-11T06:43:28.569Z,63.29
2023-01-11T06:45:55.551Z,63.33
2023-01-11T06:48:23.282Z,63.91
2023-01-11T06:50:51.670Z,63.84
2023-01-11T06:53:18.113Z,63.94
2023-01-11T06:55:44.764Z,63.83
2023-01-11T06:58:11.486Z,64.26
2023-01-11T07:00:38.085Z,64.13
2023-01-11T07:03:05.956Z,64.48
2023-01-11T07:05:34.195Z,63.68
2023-01-11T07:08:00.694Z,64.43
2023-01-11T07:10:27.814Z,64.24
2023-01-11T07:12:54.539Z,64.58
2023-01-11T07:15:21.068Z,63.64
2023-01-11T07:17:49.321Z,64.17
2023-01-11T07:20:15.989Z,63.83
2023-01-11T07:22:42.366Z,63.50
2023-01-11T07:25:08.860Z,64.15
2023-01-11T07:27:35.412Z,63.56
2023-01-11T07:30:01.978Z,63.88
2023-01-11T07:32:28.831Z,64.15
2023-01-11T07:34:55.904Z,64.38
2023-01-11T07:37:28.527Z,64.03
2023-01-11T07:39:55.811Z,64.19
2023-01-11T07:42:41.013Z,63.95
2023-01-11T07:45:08.034Z,64.40
2023-01-11T07:47:34.441Z,64.41
2023-01-11T07:50:00.797Z,64.58
2023-01-11T07:52:27.166Z,63.89
2023-01-11T07:54:53.485Z,64.08
2023-01-11T07:57:19.827Z,64.09
2023-01-11T07:59:46.155Z,63.76
2023-01-11T08:02:12.502Z,63.69
2023-01-11T08:04:38.848Z,63.44
2023-01-11T08:07:05.283Z,63.67
2023-01-11T08:09:31.833Z,63.76
2023-01-11T08:12:16.771Z,63.53
2023-01-11T08:14:43.417Z,63.10
2023-01-11T08:17:15.045Z,63.15
2023-01-11T08:19:41.921Z,63.24
2023-01-11T08:22:09.031Z,63.40
2023-01-11T08:24:35.845Z,63.44
2023-01-11T08:27:03.054Z,63.41
2023-01-11T08:29:29.961Z,63.41
2023-01-11T08:31:56.983Z,63.44
2023-01-11T08:34:23.336Z,63.21
2023-01-11T08:36:49.695Z,63.64
2023-01-11T08:39:16.004Z,63.00
2023-01-11T08:41:42.366Z,63.36
2023-01-11T08:44:09.277Z,63.14
2023-01-11T08:46:37.796Z,63.27
2023-01-11T08:49:04.891Z,63.74
2023-01-11T08:51:31.309Z,63.29
2023-01-11T08:53:57.632Z,63.06
2023-01-11T08:56:23.947Z,63.10
2023-01-11T08:58:50.299Z,63.33
2023-01-11T09:01:16.682Z,63.17
2023-01-11T09:03:43.006Z,63.57
2023-01-11T09:06:09.465Z,63.35
2023-01-11T09:08:35.812Z,62.99
2023-01-11T09:11:02.148Z,63.07
2023-01-11T09:13:28.507Z,63.37
2023-01-11T09:15:56.513Z,63.37
2023-01-11T09:18:22.959Z,62.89
2023-01-11T09:20:51.288Z,63.15
2023-01-11T09:23:17.685Z,63.40
2023-01-11T09:25:44.025Z,63.39
2023-01-11T09:28:10.356Z,63.36
2023-01-11T09:30:38.858Z,63.03
2023-01-11T09:33:06.806Z,63.22
2023-01-11T09:35:34.852Z,63.45
2023-01-11T09:38:02.458Z,63.42
2023-01-11T09:40:59.761Z,63.11
2023-01-11T09:43:28.522Z,63.65
2023-01-11T09:46:00.416Z,63.29
2023-01-11T09:48:46.398Z,63.35
2023-01-11T09:51:16.518Z,63.51
2023-01-11T09:53:50.182Z,63.54
2023-01-11T09:56:24.523Z,63.55
2023-01-11T09:59:24.197Z,63.65
2023-01-11T10:02:05.200Z,63.85
2023-01-11T10:04:55.190Z,63.91
2023-01-11T10:07:53.539Z,63.58
2023-01-11T10:18:40.120Z,63.88
2023-01-11T10:19:42.343Z,63.57
2023-01-11T10:22:23.257Z,63.88
2023-01-11T10:25:13.560Z,64.00
2023-01-11T10:27:46.656Z,63.33
2023-01-11T10:30:45.593Z,64.12
2023-01-11T10:33:50.552Z,64.66
2023-01-11T10:36:38.629Z,66.16
2023-01-11T10:39:37.607Z,66.70
2023-01-11T10:42:19.741Z,68.10
2023-01-11T10:44:49.648Z,68.44
2023-01-11T10:47:22.006Z,68.88
2023-01-11T10:49:55.387Z,69.48
2023-01-11T10:52:29.188Z,70.45
2023-01-11T10:54:57.266Z,70.73
2023-01-11T10:57:30.303Z,70.86
2023-01-11T11:00:14.000Z,71.43
2023-01-11T11:02:52.802Z,73.29
2023-01-11T11:06:00.608Z,73.04
2023-01-11T11:08:58.035Z,73.67
2023-01-11T11:11:36.762Z,73.40
2023-01-11T11:14:13.201Z,73.42
2023-01-11T11:16:44.887Z,73.37
2023-01-11T11:19:22.183Z,73.13
2023-01-11T11:21:49.768Z,73.74
2023-01-11T11:24:37.200Z,73.84
2023-01-11T11:27:14.303Z,74.26
2023-01-11T11:29:43.493Z,75.42
2023-01-11T11:32:20.617Z,75.85
2023-01-11T11:34:49.100Z,76.17
2023-01-11T11:37:25.153Z,76.98
2023-01-11T11:39:52.603Z,76.93
2023-01-11T11:42:22.812Z,76.44
2023-01-11T11:45:14.292Z,77.11
2023-01-11T11:47:40.891Z,77.58
2023-01-11T11:50:41.922Z,77.89
2023-01-11T11:53:06.113Z,78.44
2023-01-11T11:55:34.589Z,78.93
2023-01-11T11:58:08.398Z,79.39
2023-01-11T12:00:42.844Z,79.38
2023-01-11T12:03:27.370Z,80.00
2023-01-11T12:06:01.525Z,80.79
2023-01-11T12:08:31.566Z,80.97
2023-01-11T12:11:01.413Z,81.65
2023-01-11T12:13:33.767Z,81.20
2023-01-11T12:16:03.539Z,81.93
2023-01-11T12:18:42.796Z,81.50
2023-01-11T12:21:30.046Z,81.59
2023-01-11T12:24:19.153Z,81.40
2023-01-11T12:27:03.837Z,81.55
2023-01-11T12:29:58.233Z,81.31
2023-01-11T12:32:58.548Z,80.53
2023-01-11T12:35:55.995Z,80.41
2023-01-11T12:39:02.640Z,81.03
2023-01-11T12:41:52.926Z,81.74
2023-01-11T12:44:22.257Z,81.60
2023-01-11T12:47:17.224Z,82.22
2023-01-11T12:50:24.853Z,82.70
2023-01-11T12:53:38.908Z,83.12
2023-01-11T12:56:27.834Z,83.59
2023-01-11T12:59:31.875Z,84.26
2023-01-11T13:02:01.280Z,84.59
2023-01-11T13:04:33.732Z,84.45
2023-01-11T13:07:21.989Z,84.86
2023-01-11T13:10:12.631Z,84.70
2023-01-11T13:12:51.920Z,85.18
2023-01-11T13:15:44.893Z,85.84
2023-01-11T13:18:26.846Z,85.47
2023-01-11T13:21:02.203Z,85.43
2023-01-11T13:23:47.466Z,86.04
2023-01-11T13:26:21.689Z,85.66
2023-01-11T13:28:54.747Z,85.01
2023-01-11T13:31:22.476Z,84.64
2023-01-11T13:33:55.248Z,85.08
2023-01-11T13:36:26.194Z,85.05
2023-01-11T13:39:13.525Z,84.83
2023-01-11T13:41:46.142Z,84.59
2023-01-11T13:44:22.335Z,85.41
2023-01-11T13:46:57.571Z,85.08
2023-01-11T13:49:42.760Z,85.69
2023-01-11T13:52:13.322Z,85.66
2023-01-11T13:54:56.792Z,85.99
2023-01-11T13:57:47.766Z,86.19
2023-01-11T14:00:40.901Z,85.74
2023-01-11T14:03:26.365Z,85.94
2023-01-11T14:06:30.082Z,86.42
2023-01-11T14:09:16.715Z,86.53
2023-01-11T14:11:52.017Z,86.12
2023-01-11T14:14:37.606Z,86.10
2023-01-11T14:17:21.103Z,86.07
2023-01-11T14:20:06.748Z,86.78
2023-01-11T14:22:49.675Z,86.90
2023-01-11T14:25:33.280Z,85.49
2023-01-11T14:28:18.235Z,84.78
2023-01-11T14:31:04.870Z,85.55
2023-01-11T14:33:57.280Z,86.18
2023-01-11T14:36:35.706Z,86.47
2023-01-11T14:39:20.756Z,87.88
2023-01-11T14:42:31.343Z,87.29
2023-01-11T14:45:19.863Z,87.71
2023-01-11T14:47:55.244Z,87.80
2023-01-11T14:50:34.528Z,87.65
2023-01-11T14:53:03.537Z,87.74
2023-01-11T14:55:35.553Z,88.20
2023-01-11T14:58:04.369Z,88.51
2023-01-11T15:00:30.643Z,88.17
2023-01-11T15:02:59.775Z,87.85
2023-01-11T15:05:37.852Z,88.08
2023-01-11T15:08:13.486Z,87.58
2023-01-11T15:10:58.205Z,87.08
2023-01-11T15:13:44.330Z,87.37
2023-01-11T15:16:42.574Z,87.45
2023-01-11T15:19:23.483Z,86.75
2023-01-11T15:21:53.232Z,87.05
2023-01-11T15:24:24.538Z,87.21
2023-01-11T15:26:51.579Z,86.96
2023-01-11T15:29:23.783Z,86.96
2023-01-11T15:32:02.053Z,87.55
2023-01-11T15:34:31.417Z,87.35
2023-01-11T15:37:01.209Z,87.02
2023-01-11T15:39:44.390Z,86.63
2023-01-11T15:42:16.648Z,86.30
2023-01-11T15:44:48.929Z,85.69
2023-01-11T15:47:34.594Z,86.37
2023-01-11T15:50:40.835Z,86.95
2023-01-11T15:53:33.935Z,87.88
2023-01-11T15:56:03.278Z,88.58
2023-01-11T15:58:50.491Z,89.67
2023-01-11T16:01:28.253Z,89.80
2023-01-11T16:04:34.299Z,89.67
2023-01-11T16:07:42.745Z,89.42
2023-01-11T16:10:55.324Z,88.99
2023-01-11T16:13:30.750Z,88.64
2023-01-11T16:16:10.211Z,88.59
2023-01-11T16:18:44.423Z,88.71
2023-01-11T16:21:26.456Z,88.61
2023-01-11T16:23:55.094Z,88.60
2023-01-11T16:26:22.001Z,88.59
2023-01-11T16:28:51.628Z,88.50
2023-01-11T16:31:18.144Z,88.42
2023-01-11T16:33:44.766Z,88.42
2023-01-11T16:36:11.234Z,88.58
2023-01-11T16:39:07.208Z,88.41
2023-01-11T16:41:44.111Z,88.54
2023-01-11T16:44:24.551Z,88.60
2023-01-11T16:47:13.182Z,87.90
2023-01-11T16:49:42.887Z,87.92
2023-01-11T16:52:27.522Z,88.48
2023-01-11T16:54:56.030Z,88.76
2023-01-11T16:57:30.781Z,88.28
2023-01-11T17:00:04.128Z,89.32
2023-01-11T17:02:35.565Z,89.33
2023-01-11T17:05:01.959Z,89.50
2023-01-11T17:07:29.893Z,89.37
2023-01-11T17:10:16.632Z,89.29
2023-01-11T17:12:45.940Z,89.43
2023-01-11T17:15:21.299Z,89.49
2023-01-11T17:17:47.714Z,89.40
2023-01-11T17:20:22.990Z,89.71
2023-01-11T17:22:53.536Z,88.74
2023-01-11T17:25:29.601Z,89.24
2023-01-11T17:28:14.486Z,88.82
2023-01-11T17:30:44.927Z,88.47
2023-01-11T17:33:25.042Z,88.88
2023-01-11T17:35:52.103Z,89.05
2023-01-11T17:38:22.192Z,89.28
2023-01-11T17:40:48.781Z,89.45
2023-01-11T17:43:41.201Z,89.93
2023-01-11T17:46:09.298Z,89.18
2023-01-11T17:48:35.720Z,89.24
2023-01-11T17:51:03.762Z,88.90
2023-01-11T17:53:35.119Z,89.11
2023-01-11T17:56:04.244Z,89.38
2023-01-11T17:58:37.914Z,89.04
2023-01-11T18:01:04.684Z,88.47
2023-01-11T18:03:43.796Z,88.95
2023-01-11T18:06:30.100Z,88.92
2023-01-11T18:08:58.116Z,89.25
2023-01-11T18:11:30.848Z,88.85
2023-01-11T18:14:01.081Z,88.47
2023-01-11T18:16:28.319Z,88.17
2023-01-11T18:18:55.706Z,87.89
2023-01-11T18:21:25.067Z,87.61
2023-01-11T18:24:09.867Z,87.43
2023-01-11T18:26:41.410Z,87.34
2023-01-11T18:29:20.097Z,86.95
2023-01-11T18:31:46.686Z,87.03
2023-01-11T18:34:13.025Z,86.76
2023-01-11T18:36:39.418Z,87.16
2023-01-11T18:39:10.217Z,87.09
2023-01-11T18:41:56.396Z,87.15
2023-01-11T18:44:22.743Z,86.92
2023-01-11T18:46:49.124Z,86.00
2023-01-11T18:49:15.454Z,84.60
2023-01-11T18:51:45.009Z,84.96
2023-01-11T18:54:17.496Z,86.28
2023-01-11T18:56:44.089Z,86.42
2023-01-11T18:59:10.540Z,86.65
2023-01-11T19:01:52.643Z,86.69
2023-01-11T19:04:22.649Z,86.82
2023-01-11T19:06:49.024Z,86.61
2023-01-11T19:09:15.340Z,85.98
2023-01-11T19:11:41.659Z,85.72
2023-01-11T19:14:10.139Z,85.77
2023-01-11T19:16:36.504Z,85.71
2023-01-11T19:19:02.874Z,84.45
2023-01-11T19:21:29.211Z,84.53
2023-01-11T19:23:55.537Z,83.81
2023-01-11T19:26:21.858Z,83.18
2023-01-11T19:28:48.202Z,83.07
2023-01-11T19:31:14.647Z,82.71
2023-01-11T19:33:41.485Z,82.96
2023-01-11T19:36:08.217Z,83.05
2023-01-11T19:38:34.716Z,82.93
2023-01-11T19:41:07.058Z,82.84
2023-01-11T19:43:33.697Z,83.05
2023-01-11T19:46:01.935Z,82.89
2023-01-11T19:48:28.272Z,82.48
2023-01-11T19:51:02.647Z,82.05
2023-01-11T19:53:30.455Z,81.69
2023-01-11T19:56:14.995Z,81.96
2023-01-11T19:58:41.335Z,82.03
2023-01-11T20:01:10.611Z,82.72
2023-01-11T20:03:37.076Z,83.15
2023-01-11T20:06:08.034Z,82.41
2023-01-11T20:08:40.397Z,82.42
2023-01-11T20:11:12.008Z,83.17
2023-01-11T20:13:39.390Z,83.40
2023-01-11T20:16:07.365Z,84.59
2023-01-11T20:18:33.924Z,84.87
2023-01-11T20:21:00.632Z,85.27
2023-01-11T20:23:30.219Z,84.60
2023-01-11T20:26:01.977Z,84.95
2023-01-11T20:28:28.373Z,84.96
2023-01-11T20:30:56.251Z,84.85
2023-01-11T20:33:22.649Z,85.17
2023-01-11T20:35:49.192Z,85.14
2023-01-11T20:38:15.783Z,85.11
2023-01-11T20:40:42.311Z,85.00
2023-01-11T20:43:10.933Z,84.82
2023-01-11T20:45:39.547Z,84.68
2023-01-11T20:48:07.210Z,84.93
2023-01-11T20:50:35.419Z,84.60
2023-01-11T20:53:02.672Z,84.52
2023-01-11T20:55:29.214Z,84.89
2023-01-11T20:57:55.602Z,85.19
2023-01-11T21:00:22.189Z,85.11
2023-01-11T21:02:49.608Z,85.10
2023-01-11T21:05:16.470Z,84.93
2023-01-11T21:07:42.887Z,84.91
2023-01-11T21:10:09.900Z,84.92
2023-01-11T21:12:36.234Z,84.76
2023-01-11T21:15:02.572Z,84.23
2023-01-11T21:17:28.940Z,83.74
2023-01-11T21:19:55.293Z,82.88
2023-01-11T21:22:21.701Z,82.43
2023-01-11T21:24:48.297Z,81.33
2023-01-11T21:27:14.718Z,80.23
2023-01-11T21:29:41.089Z,79.56
2023-01-11T21:32:07.444Z,79.71
2023-01-11T21:34:33.830Z,80.28
2023-01-11T21:37:00.173Z,80.97
2023-01-11T21:39:26.746Z,80.73
2023-01-11T21:41:55.833Z,80.86
2023-01-11T21:44:27.286Z,80.95
2023-01-11T21:46:53.783Z,80.87
2023-01-11T21:49:22.316Z,80.52
2023-01-11T21:51:48.622Z,80.77
2023-01-11T21:54:16.926Z,81.17
2023-01-11T21:56:43.284Z,81.35
2023-01-11T21:59:09.980Z,80.88
2023-01-11T22:01:37.734Z,81.35
2023-01-11T22:04:12.726Z,81.63
2023-01-11T22:06:40.709Z,81.56
2023-01-11T22:09:09.848Z,82.16
2023-01-11T22:11:37.624Z,81.68
2023-01-11T22:14:06.355Z,81.71
2023-01-11T22:16:33.226Z,80.97
2023-01-11T22:19:00.651Z,81.28
2023-01-11T22:21:27.942Z,80.87
2023-01-11T22:23:56.319Z,80.71
2023-01-11T22:26:23.515Z,80.70
2023-01-11T22:29:11.766Z,81.02
2023-01-11T22:31:48.951Z,82.79
2023-01-11T22:34:15.671Z,82.98
2023-01-11T22:36:42.934Z,83.16
2023-01-11T22:39:10.161Z,83.40
2023-01-11T22:41:36.576Z,83.34
2023-01-11T22:44:03.158Z,83.36
2023-01-11T22:46:29.524Z,83.60
2023-01-11T22:48:55.944Z,83.51
2023-01-11T22:51:25.115Z,83.87
2023-01-11T22:53:53.644Z,83.43
2023-01-11T22:56:22.309Z,83.08
2023-01-11T22:58:50.525Z,82.89
2023-01-11T23:01:21.142Z,82.53
2023-01-11T23:03:48.235Z,82.17
2023-01-11T23:06:20.229Z,82.68
2023-01-11T23:08:46.627Z,82.89
2023-01-11T23:11:38.969Z,82.78
2023-01-11T23:14:08.155Z,82.59
2023-01-11T23:16:35.180Z,82.04
2023-01-11T23:19:02.019Z,81.80
2023-01-11T23:21:28.418Z,81.80
2023-01-11T23:23:54.820Z,81.17
2023-01-11T23:26:22.168Z,81.10
2023-01-11T23:28:49.972Z,81.26
2023-01-11T23:31:19.419Z,81.03
2023-01-11T23:33:47.609Z,81.13
2023-01-11T23:36:15.293Z,81.64
2023-01-11T23:38:41.705Z,81.34
2023-01-11T23:41:35.883Z,81.15
2023-01-11T23:44:05.480Z,81.42
2023-01-11T23:46:50.620Z,80.95
2023-01-11T23:49:17.777Z,81.24
2023-01-11T23:51:44.139Z,81.64
2023-01-11T23:54:10.775Z,81.51
2023-01-11T23:56:37.973Z,81.67
2023-01-11T23:59:04.738Z,80.94
